Time;durP1;ratioP1;P1;durP2;ratioP2;P2;SDS_P1;SDS_P2;PMS_P1;PMS_P2;Temp;Humidity;BMP_temperature;BMP_pressure;BME280_temperature;BME280_humidity;BME280_pressure;Samples;Min_cycle;Max_cycle;Signal;HPM_P1;HPM_P2
2020/12/26 05:00:31;;;;;;;32.05;16.27;;;0.90;99.90;;;;;;5910262;23;20282;-72
2020/12/26 05:03:03;;;;;;;26.40;16.35;;;0.90;99.90;;;;;;4967839;28;20217;-71
2020/12/26 05:05:32;;;;;;;28.77;16.27;;;1.00;99.90;;;;;;4954191;29;20208;-72
2020/12/26 05:07:58;;;;;;;29.00;16.45;;;1.00;99.90;;;;;;4965972;28;20200;-71
2020/12/26 05:10:24;;;;;;;31.52;17.13;;;1.00;99.90;;;;;;4970682;28;20204;-72
2020/12/26 05:12:50;;;;;;;22.23;14.95;;;1.00;99.90;;;;;;4953858;28;20213;-72
2020/12/26 05:15:17;;;;;;;28.10;15.32;;;1.00;99.90;;;;;;4953307;29;20212;-72
2020/12/26 05:17:44;;;;;;;36.55;18.75;;;1.10;99.90;;;;;;4954319;28;20216;-73
2020/12/26 05:20:10;;;;;;;31.77;16.63;;;1.10;99.90;;;;;;4954292;28;20288;-72
2020/12/26 05:22:36;;;;;;;26.10;16.48;;;1.10;99.90;;;;;;4953578;28;20193;-72
2020/12/26 05:25:07;;;;;;;34.25;17.77;;;1.10;99.90;;;;;;4953521;28;20287;-72
2020/12/26 05:27:33;;;;;;;37.47;18.52;;;1.20;99.90;;;;;;4954332;28;20213;-72
2020/12/26 05:30:01;;;;;;;40.90;20.13;;;1.20;99.90;;;;;;4953971;28;20206;-72
2020/12/26 05:32:27;;;;;;;39.63;20.50;;;1.20;99.90;;;;;;4953747;28;20746;-72
2020/12/26 05:35:03;;;;;;;35.33;17.83;;;1.20;99.90;;;;;;4954412;28;20204;-72
2020/12/26 05:37:30;;;;;;;30.77;18.10;;;1.20;99.90;;;;;;4953196;28;20223;-72
2020/12/26 05:39:59;;;;;;;32.63;18.30;;;1.30;99.90;;;;;;4953097;28;20315;-72
2020/12/26 05:42:25;;;;;;;34.13;17.50;;;1.30;99.90;;;;;;4953388;28;20312;-72
2020/12/26 05:44:51;;;;;;;30.00;17.83;;;1.30;99.90;;;;;;4954133;28;20209;-72
2020/12/26 05:47:25;;;;;;;33.10;19.30;;;1.30;99.90;;;;;;4953467;28;20674;-72
2020/12/26 05:49:51;;;;;;;31.55;16.13;;;1.30;99.90;;;;;;4952619;28;20292;-72
2020/12/26 05:52:19;;;;;;;31.73;19.33;;;1.30;99.90;;;;;;4944431;29;20224;-73
2020/12/26 05:54:49;;;;;;;35.30;17.35;;;1.40;99.90;;;;;;4953872;28;20209;-72
2020/12/26 05:57:17;;;;;;;25.65;16.48;;;1.40;99.90;;;;;;4944604;29;20209;-72
2020/12/26 05:59:47;;;;;;;31.77;17.90;;;1.40;99.90;;;;;;4952497;28;20233;-72
2020/12/26 06:02:26;;;;;;;29.70;17.25;;;1.50;99.90;;;;;;4957397;28;20365;-72
2020/12/26 06:04:58;;;;;;;32.70;17.42;;;1.50;99.90;;;;;;4965762;28;20211;-71
2020/12/26 06:07:27;;;;;;;31.95;17.38;;;1.50;99.90;;;;;;4969968;28;20674;-71
2020/12/26 06:09:56;;;;;;;29.85;18.00;;;1.50;99.90;;;;;;4956459;29;20205;-72
2020/12/26 06:12:24;;;;;;;22.60;15.82;;;1.50;99.90;;;;;;4957591;28;20256;-72
2020/12/26 06:14:51;;;;;;;28.95;17.10;;;1.50;99.90;;;;;;4957585;28;20204;-72
2020/12/26 06:17:20;;;;;;;31.23;16.55;;;1.60;99.90;;;;;;4957610;28;20232;-72
2020/12/26 06:19:55;;;;;;;30.65;16.05;;;1.60;99.90;;;;;;4957737;28;20263;-72
2020/12/26 06:22:21;;;;;;;29.33;17.73;;;1.60;99.90;;;;;;4956809;28;20228;-74
2020/12/26 06:24:49;;;;;;;33.22;18.27;;;1.60;99.90;;;;;;4956787;29;20212;-73
2020/12/26 06:27:16;;;;;;;28.38;17.15;;;1.60;99.90;;;;;;4957550;28;20216;-73
2020/12/26 06:29:44;;;;;;;29.33;16.65;;;1.60;99.90;;;;;;4956961;28;20193;-74
2020/12/26 06:32:12;;;;;;;28.92;16.60;;;1.60;99.90;;;;;;4956949;28;20585;-73
2020/12/26 06:34:43;;;;;;;30.17;16.50;;;1.60;99.90;;;;;;4951325;29;20614;-74
2020/12/26 06:37:11;;;;;;;32.90;17.10;;;1.60;99.90;;;;;;4967301;28;20219;-74
2020/12/26 06:39:38;;;;;;;26.73;15.73;;;1.60;99.90;;;;;;4965436;28;20725;-73
2020/12/26 06:42:16;;;;;;;24.20;15.57;;;1.60;99.90;;;;;;4956620;28;20299;-74
2020/12/26 06:44:43;;;;;;;26.70;15.95;;;1.60;99.90;;;;;;4957377;28;20209;-74
2020/12/26 06:47:34;;;;;;;30.27;17.27;;;1.60;99.90;;;;;;4957001;29;20515;-74
2020/12/26 06:50:16;;;;;;;28.95;16.80;;;1.60;99.90;;;;;;4956606;28;20348;-74
2020/12/26 06:52:42;;;;;;;28.85;15.82;;;1.60;99.90;;;;;;4956277;28;20550;-72
2020/12/26 06:55:08;;;;;;;26.63;15.57;;;1.60;99.90;;;;;;4956799;28;20232;-71
2020/12/26 06:57:41;;;;;;;24.45;14.80;;;1.60;99.90;;;;;;4956697;29;20568;-75
2020/12/26 07:00:27;;;;;;;28.67;15.18;;;1.60;99.90;;;;;;4957045;28;20221;-74
2020/12/26 07:03:16;;;;;;;23.00;14.90;;;1.60;99.90;;;;;;4957088;28;20305;-75
2020/12/26 07:05:42;;;;;;;24.27;15.35;;;1.60;99.90;;;;;;4956873;28;20511;-74
2020/12/26 07:08:23;;;;;;;23.67;15.55;;;1.70;99.90;;;;;;4956799;28;20692;-75
2020/12/26 07:10:50;;;;;;;24.40;15.15;;;1.70;99.90;;;;;;4957377;28;20221;-74
2020/12/26 07:13:42;;;;;;;22.70;14.07;;;1.70;99.90;;;;;;4955804;28;20315;-74
2020/12/26 07:16:35;;;;;;;21.85;13.70;;;1.70;99.90;;;;;;4957014;28;20198;-74
2020/12/26 07:19:23;;;;;;;20.40;14.02;;;1.70;99.90;;;;;;4956520;28;20205;-74
2020/12/26 07:21:50;;;;;;;21.77;14.32;;;1.70;99.90;;;;;;4955991;28;20217;-74
2020/12/26 07:24:17;;;;;;;22.83;14.07;;;1.70;99.90;;;;;;4956400;28;20244;-76
2020/12/26 07:26:43;;;;;;;21.15;14.75;;;1.80;99.90;;;;;;4956726;28;20284;-75
2020/12/26 07:29:18;;;;;;;19.02;13.50;;;1.80;99.90;;;;;;4955867;28;20201;-75
2020/12/26 07:31:48;;;;;;;21.60;13.27;;;1.80;99.90;;;;;;4956452;28;20634;-75
2020/12/26 07:34:37;;;;;;;17.77;12.45;;;1.80;99.90;;;;;;4957276;28;20213;-75
2020/12/26 07:37:03;;;;;;;17.42;12.25;;;1.80;99.90;;;;;;4937843;29;20542;-75
2020/12/26 07:39:29;;;;;;;18.60;14.55;;;1.80;99.90;;;;;;4953312;29;20637;-75
2020/12/26 07:41:56;;;;;;;21.05;13.10;;;1.80;99.90;;;;;;4957544;28;20217;-75
2020/12/26 07:44:28;;;;;;;21.55;15.00;;;1.90;99.90;;;;;;4958031;28;20205;-75
2020/12/26 07:46:56;;;;;;;22.73;14.45;;;1.90;99.90;;;;;;4957903;28;20313;-75
2020/12/26 07:49:23;;;;;;;17.98;13.45;;;1.90;99.90;;;;;;4957446;28;20201;-74
2020/12/26 07:52:05;;;;;;;19.10;13.40;;;1.90;99.90;;;;;;4957317;28;20225;-75
2020/12/26 07:54:32;;;;;;;23.75;13.55;;;1.90;99.90;;;;;;4956565;28;20201;-75
2020/12/26 07:56:58;;;;;;;15.75;12.23;;;1.90;99.90;;;;;;4957065;28;20627;-75
2020/12/26 07:59:25;;;;;;;18.35;12.95;;;1.90;99.90;;;;;;4956630;28;20249;-75
2020/12/26 08:01:53;;;;;;;20.10;13.27;;;1.90;99.90;;;;;;4956929;28;20240;-75
2020/12/26 08:04:19;;;;;;;15.52;11.73;;;2.00;99.90;;;;;;4957625;28;20672;-74
2020/12/26 08:06:47;;;;;;;16.90;12.95;;;2.00;99.90;;;;;;4957238;28;20214;-75
2020/12/26 08:09:13;;;;;;;19.63;13.90;;;2.00;99.90;;;;;;4959118;28;20212;-74
2020/12/26 08:11:40;;;;;;;17.13;13.20;;;2.00;99.90;;;;;;4955785;29;20213;-73
2020/12/26 08:14:06;;;;;;;16.00;11.60;;;2.00;99.90;;;;;;4955624;28;20209;-73
2020/12/26 08:16:33;;;;;;;15.73;13.30;;;2.00;99.90;;;;;;4955099;28;20233;-73
2020/12/26 08:19:01;;;;;;;16.20;12.00;;;2.10;99.90;;;;;;4955671;28;20312;-72
2020/12/26 08:21:27;;;;;;;16.92;13.10;;;2.10;99.90;;;;;;4955169;28;20229;-71
2020/12/26 08:23:58;;;;;;;17.33;12.23;;;2.10;99.90;;;;;;4955415;28;20205;-73
2020/12/26 08:26:25;;;;;;;14.05;12.38;;;2.10;99.90;;;;;;4956497;28;20219;-71
2020/12/26 08:28:55;;;;;;;13.75;11.43;;;2.20;99.90;;;;;;4954936;28;20213;-71
2020/12/26 08:31:23;;;;;;;15.18;11.95;;;2.20;99.90;;;;;;4955719;28;20225;-71
2020/12/26 08:33:54;;;;;;;15.30;11.73;;;2.20;99.90;;;;;;4955389;28;20260;-71
2020/12/26 08:36:27;;;;;;;13.50;11.10;;;2.20;99.90;;;;;;4954829;28;20219;-72
2020/12/26 08:38:57;;;;;;;21.15;11.95;;;2.20;99.90;;;;;;4953214;29;20199;-72
2020/12/26 08:41:23;;;;;;;14.68;10.63;;;2.20;99.90;;;;;;4953931;28;20688;-72
2020/12/26 08:43:49;;;;;;;15.13;11.07;;;2.30;99.90;;;;;;4953409;28;20224;-75
2020/12/26 08:46:17;;;;;;;13.38;11.98;;;2.30;99.90;;;;;;4954608;28;20201;-72
2020/12/26 08:48:44;;;;;;;14.73;11.10;;;2.40;99.90;;;;;;4953862;28;20220;-72
2020/12/26 08:51:21;;;;;;;14.05;10.95;;;2.40;99.90;;;;;;4954156;28;20282;-72
2020/12/26 08:53:49;;;;;;;12.07;10.90;;;2.40;99.90;;;;;;4954352;28;20341;-71
2020/12/26 08:56:16;;;;;;;11.52;10.05;;;2.50;99.90;;;;;;4954079;28;20682;-71
2020/12/26 08:58:49;;;;;;;12.02;10.05;;;2.50;99.90;;;;;;4954248;28;20202;-72
2020/12/26 09:01:16;;;;;;;14.90;11.90;;;2.50;99.90;;;;;;4954441;28;20229;-72
2020/12/26 09:03:49;;;;;;;11.60;10.45;;;2.60;99.90;;;;;;4954211;28;20213;-71
2020/12/26 09:06:17;;;;;;;17.70;12.02;;;2.60;99.90;;;;;;4952151;29;20240;-71
2020/12/26 09:08:43;;;;;;;15.00;11.20;;;2.60;99.90;;;;;;4953190;28;20225;-72
2020/12/26 09:11:12;;;;;;;11.75;10.55;;;2.60;99.90;;;;;;4953506;28;20237;-72
2020/12/26 09:13:40;;;;;;;14.68;11.45;;;2.70;99.90;;;;;;4952971;28;20618;-73
2020/12/26 09:16:11;;;;;;;15.32;11.05;;;2.70;99.90;;;;;;4934565;29;20698;-72
2020/12/26 09:18:42;;;;;;;45.70;25.80;;;2.80;99.90;;;;;;4950709;29;20224;-72
2020/12/26 09:21:19;;;;;;;67.20;30.00;;;2.90;99.90;;;;;;4951420;28;20300;-71
2020/12/26 09:23:45;;;;;;;26.25;16.42;;;2.90;99.90;;;;;;4952291;28;20772;-71
2020/12/26 09:26:14;;;;;;;21.33;13.95;;;2.90;99.90;;;;;;4953542;28;20216;-71
2020/12/26 09:28:49;;;;;;;18.42;13.48;;;2.90;99.90;;;;;;4953721;29;20209;-71
2020/12/26 09:31:17;;;;;;;29.98;17.98;;;2.90;99.90;;;;;;4956281;28;20217;-70
2020/12/26 09:33:43;;;;;;;29.23;21.90;;;3.00;99.90;;;;;;4957139;28;20271;-72
2020/12/26 09:36:11;;;;;;;27.05;18.92;;;3.00;99.90;;;;;;4956550;28;20628;-72
2020/12/26 09:38:37;;;;;;;13.65;12.23;;;3.00;99.90;;;;;;4959457;28;20236;-72
2020/12/26 09:41:12;;;;;;;9.80;8.55;;;3.00;99.90;;;;;;4954018;28;20232;-72
2020/12/26 09:43:39;;;;;;;11.10;10.05;;;3.00;99.90;;;;;;4952120;28;20219;-72
2020/12/26 09:46:05;;;;;;;11.70;10.50;;;3.10;99.90;;;;;;4953622;28;20201;-70
2020/12/26 09:48:32;;;;;;;10.35;9.35;;;3.10;99.90;;;;;;4953146;28;20206;-71
2020/12/26 09:50:58;;;;;;;11.73;10.48;;;3.10;99.90;;;;;;4952560;28;20312;-70
2020/12/26 09:53:24;;;;;;;9.98;9.05;;;3.10;99.90;;;;;;4953774;29;20213;-75
2020/12/26 09:55:50;;;;;;;10.25;9.10;;;3.10;99.90;;;;;;4953621;28;20261;-75
2020/12/26 09:58:17;;;;;;;10.23;9.25;;;3.10;99.90;;;;;;4954157;28;20257;-72
2020/12/26 10:00:44;;;;;;;14.85;8.07;;;3.20;99.90;;;;;;4951681;28;20384;-74
2020/12/26 10:03:10;;;;;;;9.23;8.27;;;3.10;99.90;;;;;;4955433;28;20577;-75
2020/12/26 10:05:36;;;;;;;10.40;8.02;;;3.20;99.90;;;;;;4941584;28;20215;-74
2020/12/26 10:08:02;;;;;;;8.43;7.60;;;3.20;99.90;;;;;;4952364;28;20208;-73
2020/12/26 10:10:28;;;;;;;9.52;7.57;;;3.20;99.90;;;;;;4952367;29;20705;-74
2020/12/26 10:12:54;;;;;;;9.07;7.68;;;3.20;99.90;;;;;;4953634;28;20205;-74
2020/12/26 10:15:21;;;;;;;12.00;8.80;;;3.20;99.90;;;;;;4954285;28;20267;-74
2020/12/26 10:17:48;;;;;;;12.18;10.70;;;3.30;99.90;;;;;;4952901;28;20205;-74
2020/12/26 10:20:14;;;;;;;16.67;13.75;;;3.30;99.90;;;;;;4952942;28;20693;-74
2020/12/26 10:22:40;;;;;;;23.70;17.13;;;3.30;99.90;;;;;;4951773;28;20619;-74
2020/12/26 10:25:06;;;;;;;11.48;8.93;;;3.30;99.90;;;;;;4952949;28;20264;-74
2020/12/26 10:27:32;;;;;;;9.32;8.52;;;3.30;99.90;;;;;;4953599;28;20297;-71
2020/12/26 10:29:58;;;;;;;8.77;7.97;;;3.40;99.90;;;;;;4953194;28;20743;-71
2020/12/26 10:32:25;;;;;;;9.10;7.75;;;3.40;99.90;;;;;;4953044;28;20590;-71
2020/12/26 10:34:51;;;;;;;9.13;7.70;;;3.40;99.90;;;;;;4953566;28;20239;-70
2020/12/26 10:37:19;;;;;;;8.82;6.72;;;3.40;99.90;;;;;;4952885;28;20205;-70
2020/12/26 10:39:46;;;;;;;8.05;7.25;;;3.40;99.90;;;;;;4954677;28;20205;-71
2020/12/26 10:42:12;;;;;;;6.75;6.20;;;3.50;99.90;;;;;;4953215;28;20257;-71
2020/12/26 10:44:38;;;;;;;6.22;5.72;;;3.40;99.90;;;;;;4953100;28;20261;-71
2020/12/26 10:47:04;;;;;;;7.47;6.88;;;3.50;99.90;;;;;;4954067;28;20209;-71
2020/12/26 10:49:31;;;;;;;7.03;6.43;;;3.50;99.90;;;;;;4956409;29;20213;-71
2020/12/26 10:51:57;;;;;;;6.88;6.28;;;3.50;99.90;;;;;;4955651;28;20323;-71
2020/12/26 10:54:24;;;;;;;22.67;15.15;;;3.50;99.90;;;;;;4955011;28;20281;-71
2020/12/26 10:56:50;;;;;;;7.50;6.70;;;3.50;99.90;;;;;;4956668;29;20205;-71
2020/12/26 10:59:16;;;;;;;8.75;7.95;;;3.50;99.90;;;;;;4956235;28;20213;-71
2020/12/26 11:01:42;;;;;;;9.38;8.57;;;3.60;99.90;;;;;;4955139;28;20417;-72
2020/12/26 11:04:08;;;;;;;7.05;6.45;;;3.60;99.90;;;;;;4959826;29;20205;-71
2020/12/26 11:06:36;;;;;;;7.47;6.72;;;3.60;99.90;;;;;;4957259;28;20688;-71
2020/12/26 11:09:02;;;;;;;7.40;6.80;;;3.60;99.90;;;;;;4958728;29;20209;-71
2020/12/26 11:11:28;;;;;;;7.50;6.93;;;3.70;99.90;;;;;;4959361;28;20551;-72
2020/12/26 11:13:54;;;;;;;8.23;7.53;;;3.70;99.90;;;;;;4955548;28;20216;-71
2020/12/26 11:16:20;;;;;;;12.27;8.05;;;3.80;99.90;;;;;;4956155;28;20206;-71
2020/12/26 11:18:46;;;;;;;11.77;8.05;;;3.80;99.90;;;;;;4955870;29;20213;-71
2020/12/26 11:21:16;;;;;;;10.13;9.25;;;3.90;99.90;;;;;;4955474;28;20225;-71
2020/12/26 11:23:44;;;;;;;7.47;6.82;;;3.90;99.90;;;;;;4954300;28;20217;-71
2020/12/26 11:26:11;;;;;;;8.23;7.53;;;3.90;99.90;;;;;;4965641;28;20209;-71
2020/12/26 11:28:38;;;;;;;8.25;7.45;;;4.00;99.90;;;;;;4969160;28;20308;-71
2020/12/26 11:31:04;;;;;;;8.90;6.70;;;4.00;99.90;;;;;;4969244;28;20213;-71
2020/12/26 11:33:30;;;;;;;7.68;6.65;;;4.00;99.90;;;;;;4954637;29;20232;-72
2020/12/26 11:35:56;;;;;;;8.07;7.47;;;4.00;99.90;;;;;;4956177;28;20217;-71
2020/12/26 11:38:23;;;;;;;7.85;7.35;;;4.00;99.90;;;;;;4955060;28;20214;-74
2020/12/26 11:40:50;;;;;;;8.25;7.45;;;4.00;99.90;;;;;;4955378;28;20604;-74
2020/12/26 11:43:16;;;;;;;8.80;7.45;;;4.00;99.90;;;;;;4958981;28;20616;-72
2020/12/26 11:45:42;;;;;;;9.35;7.90;;;4.00;99.90;;;;;;4961971;28;20205;-72
2020/12/26 11:48:08;;;;;;;8.90;8.10;;;4.00;99.90;;;;;;4958529;28;20321;-74
2020/12/26 11:50:34;;;;;;;7.72;7.13;;;4.00;99.90;;;;;;4964864;28;20224;-74
2020/12/26 11:53:00;;;;;;;9.38;6.60;;;4.00;99.90;;;;;;4971155;28;20209;-74
2020/12/26 11:55:26;;;;;;;7.32;6.72;;;4.00;99.90;;;;;;4974928;28;20247;-74
2020/12/26 11:57:53;;;;;;;11.93;7.80;;;4.00;99.90;;;;;;4958167;28;20209;-73
2020/12/26 12:00:21;;;;;;;12.65;7.75;;;4.00;99.90;;;;;;4954020;28;20320;-74
2020/12/26 12:02:48;;;;;;;8.82;7.80;;;4.00;99.90;;;;;;4954403;28;20216;-73
2020/12/26 12:05:14;;;;;;;8.85;7.95;;;4.00;99.90;;;;;;4955280;28;20682;-73
2020/12/26 12:07:41;;;;;;;9.70;8.30;;;4.00;99.90;;;;;;4958716;28;20202;-73
2020/12/26 12:10:07;;;;;;;13.93;9.10;;;4.10;99.90;;;;;;4954456;28;20210;-74
2020/12/26 12:12:33;;;;;;;8.63;7.78;;;4.10;99.90;;;;;;4954311;28;20202;-74
2020/12/26 12:15:00;;;;;;;9.10;8.20;;;4.10;99.90;;;;;;4959790;28;20221;-73
2020/12/26 12:17:26;;;;;;;8.38;7.60;;;4.10;99.90;;;;;;4952195;28;20328;-71
2020/12/26 12:19:52;;;;;;;7.55;6.80;;;4.10;99.90;;;;;;4953566;28;20209;-71
2020/12/26 12:22:18;;;;;;;10.13;9.00;;;4.10;99.90;;;;;;4954167;28;20593;-71
2020/12/26 12:24:45;;;;;;;8.63;7.82;;;4.20;99.90;;;;;;4955631;28;20592;-71
2020/12/26 12:27:11;;;;;;;12.38;9.13;;;4.20;99.90;;;;;;4953506;28;20208;-71
2020/12/26 12:29:37;;;;;;;8.93;8.05;;;4.20;99.90;;;;;;4953446;29;20205;-70
2020/12/26 12:32:04;;;;;;;10.93;8.57;;;4.20;99.90;;;;;;4953732;28;20297;-70
2020/12/26 12:34:31;;;;;;;11.87;10.67;;;4.20;99.90;;;;;;4953979;29;20466;-71
2020/12/26 12:36:57;;;;;;;10.60;9.68;;;4.30;99.90;;;;;;4956295;28;20563;-70
2020/12/26 12:39:23;;;;;;;10.18;8.93;;;4.30;99.90;;;;;;4955768;28;20547;-71
2020/12/26 12:41:53;;;;;;;9.40;8.55;;;4.30;99.90;;;;;;4956761;28;20237;-71
2020/12/26 12:44:19;;;;;;;10.32;9.43;;;4.30;99.90;;;;;;4955236;29;20205;-71
2020/12/26 12:46:45;;;;;;;18.90;10.75;;;4.30;99.90;;;;;;4954711;28;20209;-71
2020/12/26 12:49:12;;;;;;;9.90;9.02;;;4.30;99.90;;;;;;4954710;29;20586;-71
2020/12/26 12:51:40;;;;;;;18.98;13.60;;;4.30;99.90;;;;;;4954165;28;20599;-72
2020/12/26 12:54:06;;;;;;;10.18;9.32;;;4.40;99.90;;;;;;4954271;28;20220;-71
2020/12/26 12:56:32;;;;;;;11.40;10.40;;;4.40;99.90;;;;;;4968041;28;20208;-70
2020/12/26 12:58:58;;;;;;;22.85;16.63;;;4.40;99.90;;;;;;4973653;28;20208;-71
2020/12/26 13:01:25;;;;;;;12.05;10.85;;;4.40;99.90;;;;;;4973456;28;20232;-71
2020/12/26 13:03:51;;;;;;;11.30;9.55;;;4.40;99.90;;;;;;4973241;28;20587;-70
2020/12/26 13:06:19;;;;;;;12.85;11.65;;;4.40;99.90;;;;;;4973485;28;20664;-70
2020/12/26 13:08:46;;;;;;;15.05;13.50;;;4.40;99.90;;;;;;4973446;28;20243;-71
2020/12/26 13:11:13;;;;;;;13.68;12.27;;;4.40;99.90;;;;;;4970965;28;20224;-72
2020/12/26 13:13:39;;;;;;;12.10;10.98;;;4.40;99.90;;;;;;4954236;29;20232;-71
2020/12/26 13:16:05;;;;;;;13.20;10.95;;;4.40;99.90;;;;;;4954308;29;20224;-71
2020/12/26 13:18:32;;;;;;;11.75;10.50;;;4.40;99.90;;;;;;4954466;29;20295;-70
2020/12/26 13:20:58;;;;;;;11.63;10.40;;;4.50;99.90;;;;;;4953880;29;20229;-70
2020/12/26 13:23:25;;;;;;;11.00;9.98;;;4.50;99.90;;;;;;4954231;29;20220;-73
2020/12/26 13:25:51;;;;;;;13.23;10.98;;;4.50;99.90;;;;;;4955848;28;20239;-73
2020/12/26 13:28:17;;;;;;;12.07;10.73;;;4.50;99.90;;;;;;4960042;28;20208;-73
2020/12/26 13:30:44;;;;;;;10.63;9.18;;;4.40;99.90;;;;;;4974090;28;20239;-73
2020/12/26 13:33:10;;;;;;;12.73;10.93;;;4.50;99.90;;;;;;4974220;28;20212;-73
2020/12/26 13:35:36;;;;;;;14.52;11.00;;;4.50;99.90;;;;;;4973907;28;20212;-72
2020/12/26 13:38:03;;;;;;;10.63;9.50;;;4.50;99.90;;;;;;4975010;28;20213;-73
2020/12/26 13:40:30;;;;;;;11.90;10.93;;;4.50;99.90;;;;;;4959260;28;20260;-72
2020/12/26 13:42:57;;;;;;;9.45;8.45;;;4.50;99.90;;;;;;4955057;28;20236;-72
2020/12/26 13:45:23;;;;;;;10.80;9.82;;;4.60;99.90;;;;;;4955731;28;20255;-72
2020/12/26 13:47:50;;;;;;;17.27;14.50;;;4.60;99.90;;;;;;4954457;28;20521;-72
2020/12/26 13:50:16;;;;;;;16.75;15.13;;;4.50;99.90;;;;;;4954165;28;20614;-72
2020/12/26 13:52:42;;;;;;;20.25;15.90;;;4.50;99.90;;;;;;4952707;28;20637;-71
2020/12/26 13:55:08;;;;;;;16.70;13.98;;;4.50;99.90;;;;;;4952949;28;20232;-72
2020/12/26 13:57:35;;;;;;;15.52;12.60;;;4.50;99.90;;;;;;4952717;29;20516;-72
2020/12/26 14:00:01;;;;;;;17.17;13.73;;;4.50;99.90;;;;;;4952729;28;20201;-71
2020/12/26 14:02:27;;;;;;;15.52;11.93;;;4.50;99.90;;;;;;4953220;28;20649;-71
2020/12/26 14:04:53;;;;;;;18.95;16.00;;;4.50;99.90;;;;;;4955152;28;20580;-71
2020/12/26 14:07:19;;;;;;;18.52;14.07;;;4.60;99.90;;;;;;4952999;28;20220;-71
2020/12/26 14:09:46;;;;;;;15.60;11.77;;;4.60;99.90;;;;;;4952808;28;20640;-70
2020/12/26 14:12:12;;;;;;;17.73;13.35;;;4.50;99.90;;;;;;4953262;28;20694;-71
2020/12/26 14:14:39;;;;;;;17.55;14.57;;;4.50;99.90;;;;;;4953047;28;20689;-71
2020/12/26 14:17:05;;;;;;;17.38;15.63;;;4.50;99.90;;;;;;4953095;28;20264;-71
2020/12/26 14:19:31;;;;;;;18.52;15.20;;;4.50;99.90;;;;;;4946748;29;20205;-71
2020/12/26 14:21:58;;;;;;;18.20;16.30;;;4.50;99.90;;;;;;4953739;28;20588;-70
2020/12/26 14:24:24;;;;;;;18.90;15.07;;;4.50;99.90;;;;;;4956902;28;20204;-73
2020/12/26 14:26:50;;;;;;;26.80;18.35;;;4.50;99.90;;;;;;4957156;28;20210;-71
2020/12/26 14:29:17;;;;;;;18.98;15.13;;;4.60;99.90;;;;;;4956619;29;20684;-72
2020/12/26 14:31:48;;;;;;;19.48;15.27;;;4.60;99.90;;;;;;4939130;29;20229;-70
2020/12/26 14:34:14;;;;;;;18.13;14.63;;;4.70;99.90;;;;;;4943637;29;20241;-71
2020/12/26 14:36:41;;;;;;;18.48;12.88;;;4.70;99.90;;;;;;4956190;28;20224;-71
2020/12/26 14:39:07;;;;;;;19.27;15.48;;;4.60;99.90;;;;;;4959071;28;20594;-71
2020/12/26 14:41:33;;;;;;;23.65;16.25;;;4.60;99.90;;;;;;4963552;28;20255;-72
2020/12/26 14:43:59;;;;;;;19.50;13.85;;;4.60;99.90;;;;;;4957546;28;20216;-71
2020/12/26 14:46:26;;;;;;;16.77;13.80;;;4.60;99.90;;;;;;4956890;28;20213;-71
2020/12/26 14:48:53;;;;;;;18.13;13.93;;;4.60;99.90;;;;;;4946524;28;20613;-72
2020/12/26 14:51:19;;;;;;;18.27;15.15;;;4.60;99.90;;;;;;4950520;28;20228;-71
2020/12/26 14:53:48;;;;;;;21.10;15.77;;;4.60;99.90;;;;;;4955879;29;20736;-72
2020/12/26 14:56:16;;;;;;;26.63;21.25;;;4.60;99.90;;;;;;4937558;29;20247;-72
2020/12/26 14:58:43;;;;;;;22.85;16.00;;;4.60;99.90;;;;;;4949420;29;20225;-71
2020/12/26 15:01:09;;;;;;;22.73;15.63;;;4.50;99.90;;;;;;4951312;28;20229;-72
2020/12/26 15:03:35;;;;;;;19.60;16.33;;;4.50;99.90;;;;;;4956552;28;20563;-72
2020/12/26 15:06:02;;;;;;;19.73;15.60;;;4.60;99.90;;;;;;4959176;28;20209;-72
2020/12/26 15:08:28;;;;;;;20.80;16.55;;;4.50;99.90;;;;;;4951705;28;20229;-72
2020/12/26 15:10:54;;;;;;;18.58;15.57;;;4.50;99.90;;;;;;4953450;28;20229;-72
2020/12/26 15:13:21;;;;;;;14.63;12.38;;;4.50;99.90;;;;;;4955957;28;20217;-72
2020/12/26 15:15:47;;;;;;;23.52;18.90;;;4.50;99.90;;;;;;4956090;28;20217;-73
2020/12/26 15:18:13;;;;;;;18.58;15.18;;;4.50;99.90;;;;;;4952669;28;20205;-73
2020/12/26 15:20:39;;;;;;;21.80;14.63;;;4.50;99.90;;;;;;4959651;28;20229;-73
2020/12/26 15:23:06;;;;;;;20.42;16.17;;;4.50;99.90;;;;;;4955546;29;20268;-72
2020/12/26 15:25:32;;;;;;;19.67;15.15;;;4.60;99.90;;;;;;4956672;28;20209;-73
2020/12/26 15:27:58;;;;;;;20.48;15.10;;;4.60;99.90;;;;;;4958589;28;20339;-73
2020/12/26 15:30:24;;;;;;;18.05;13.68;;;4.60;99.90;;;;;;4970251;28;20201;-72
2020/12/26 15:32:50;;;;;;;17.67;13.95;;;4.50;99.90;;;;;;4958613;28;20201;-73
2020/12/26 15:35:17;;;;;;;20.75;13.65;;;4.60;99.90;;;;;;4958446;28;20205;-73
2020/12/26 15:37:43;;;;;;;19.83;14.73;;;4.60;99.90;;;;;;4959581;28;20634;-73
2020/12/26 15:40:10;;;;;;;18.35;14.57;;;4.60;99.90;;;;;;4959469;28;20205;-73
2020/12/26 15:42:37;;;;;;;21.05;14.13;;;4.60;99.90;;;;;;4958587;28;20213;-73
2020/12/26 15:45:03;;;;;;;13.48;10.85;;;4.60;99.90;;;;;;4960805;28;20540;-73
2020/12/26 15:47:29;;;;;;;18.20;12.27;;;4.60;99.90;;;;;;4959324;28;20205;-73
2020/12/26 15:49:56;;;;;;;19.30;14.43;;;4.60;99.90;;;;;;4957989;28;20208;-73
2020/12/26 15:52:22;;;;;;;16.48;13.00;;;4.60;99.90;;;;;;4956424;28;20224;-73
2020/12/26 15:54:48;;;;;;;15.68;11.18;;;4.60;99.90;;;;;;4955802;28;20260;-73
2020/12/26 15:57:15;;;;;;;14.43;12.65;;;4.50;99.90;;;;;;4958156;28;20586;-73
2020/12/26 15:59:41;;;;;;;14.95;11.98;;;4.50;99.90;;;;;;4967770;28;20211;-73
2020/12/26 16:02:07;;;;;;;14.52;11.07;;;4.50;99.90;;;;;;4975338;28;20228;-73
2020/12/26 16:04:34;;;;;;;32.50;20.23;;;4.50;99.90;;;;;;4959405;28;20205;-73
2020/12/26 16:07:00;;;;;;;12.70;11.40;;;4.50;99.90;;;;;;4963200;28;20205;-73
2020/12/26 16:09:26;;;;;;;12.95;11.65;;;4.50;99.90;;;;;;4966024;28;20209;-75
2020/12/26 16:11:52;;;;;;;11.88;10.65;;;4.50;99.90;;;;;;4955607;28;20229;-72
2020/12/26 16:14:19;;;;;;;12.43;10.93;;;4.50;99.90;;;;;;4958186;28;20697;-73
2020/12/26 16:16:46;;;;;;;11.57;8.98;;;4.50;99.90;;;;;;4968546;28;20220;-73
2020/12/26 16:19:12;;;;;;;9.63;8.77;;;4.50;99.90;;;;;;4955832;28;20205;-73
2020/12/26 16:21:38;;;;;;;11.07;8.40;;;4.60;99.90;;;;;;4954585;28;20244;-72
2020/12/26 16:24:05;;;;;;;9.82;8.82;;;4.50;99.90;;;;;;4956369;28;20566;-72
2020/12/26 16:26:32;;;;;;;10.25;8.73;;;4.60;99.90;;;;;;4954425;29;20205;-73
2020/12/26 16:28:58;;;;;;;11.65;8.10;;;4.60;99.90;;;;;;4954993;28;20660;-74
2020/12/26 16:31:32;;;;;;;10.30;8.90;;;4.60;99.90;;;;;;4954375;28;20226;-73
2020/12/26 16:33:58;;;;;;;9.10;8.40;;;4.60;99.90;;;;;;4935484;29;20213;-72
2020/12/26 16:36:25;;;;;;;8.95;8.20;;;4.60;99.90;;;;;;4954201;29;20276;-72
2020/12/26 16:38:51;;;;;;;9.30;8.40;;;4.60;99.90;;;;;;4956407;28;20201;-73
2020/12/26 16:41:17;;;;;;;8.60;7.80;;;4.60;99.90;;;;;;4955785;28;20637;-72
2020/12/26 16:43:45;;;;;;;9.73;7.03;;;4.60;99.90;;;;;;4954577;28;20292;-72
2020/12/26 16:46:11;;;;;;;6.75;6.25;;;4.60;99.90;;;;;;4954647;28;20293;-72
2020/12/26 16:48:38;;;;;;;8.55;7.75;;;4.60;99.90;;;;;;4954629;28;20209;-75
2020/12/26 16:51:04;;;;;;;7.40;6.80;;;4.60;99.90;;;;;;4954541;28;20225;-73
2020/12/26 16:53:30;;;;;;;10.77;7.18;;;4.60;99.90;;;;;;4959326;28;20582;-73
2020/12/26 16:55:56;;;;;;;7.50;6.80;;;4.60;99.90;;;;;;4958385;28;20206;-75
2020/12/26 16:58:23;;;;;;;8.50;6.90;;;4.60;99.90;;;;;;4954151;28;20220;-73
2020/12/26 17:00:50;;;;;;;6.43;5.93;;;4.60;99.90;;;;;;4953799;28;20612;-72
2020/12/26 17:03:16;;;;;;;6.85;6.25;;;4.60;99.90;;;;;;4953621;28;20213;-74
2020/12/26 17:05:43;;;;;;;6.60;6.00;;;4.60;99.90;;;;;;4954423;28;20216;-74
2020/12/26 17:08:09;;;;;;;7.30;6.47;;;4.60;99.90;;;;;;4965542;28;20207;-74
2020/12/26 17:10:35;;;;;;;7.18;6.68;;;4.60;99.90;;;;;;4973061;28;20279;-74
2020/12/26 17:13:02;;;;;;;15.60;12.80;;;4.60;99.90;;;;;;4963226;28;20681;-74
2020/12/26 17:15:28;;;;;;;11.63;9.40;;;4.60;99.90;;;;;;4953899;28;20202;-73
2020/12/26 17:17:54;;;;;;;12.90;7.55;;;4.60;99.90;;;;;;4953849;28;20205;-74
2020/12/26 17:20:20;;;;;;;10.00;9.05;;;4.70;99.90;;;;;;4953404;29;20229;-73
2020/12/26 17:22:47;;;;;;;7.00;6.53;;;4.60;99.90;;;;;;4963881;28;20216;-74
2020/12/26 17:25:13;;;;;;;7.45;6.85;;;4.60;99.90;;;;;;4953355;28;20277;-74
2020/12/26 17:27:39;;;;;;;8.38;6.43;;;4.60;99.90;;;;;;4953435;28;20215;-73
2020/12/26 17:30:05;;;;;;;8.00;6.45;;;4.60;99.90;;;;;;4953809;28;20209;-74
2020/12/26 17:32:32;;;;;;;6.60;6.10;;;4.60;99.90;;;;;;4945024;28;20247;-74
2020/12/26 17:34:58;;;;;;;5.45;5.05;;;4.60;99.90;;;;;;4950531;29;20238;-74
2020/12/26 17:37:24;;;;;;;5.35;4.95;;;4.60;99.90;;;;;;4952306;28;20205;-74
2020/12/26 17:39:51;;;;;;;6.60;5.38;;;4.60;99.90;;;;;;4953417;28;20239;-74
2020/12/26 17:42:17;;;;;;;5.47;4.97;;;4.50;99.90;;;;;;4945555;28;20245;-74
2020/12/26 17:44:43;;;;;;;5.35;4.95;;;4.60;99.90;;;;;;4942384;29;20201;-75